Time;durP1;ratioP1;P1;durP2;ratioP2;P2;SDS_P1;SDS_P2;PMS_P1;PMS_P2;Temp;Humidity;BMP_temperature;BMP_pressure;BME280_temperature;BME280_humidity;BME280_pressure;Samples;Min_cycle;Max_cycle;Signal;HPM_P1;HPM_P2
2023/07/23 00:02:15;;;;;;;5.73;3.70;;;14.80;99.90;;;;;;5113965;28;20214;-77
2023/07/23 00:04:43;;;;;;;5.57;4.00;;;14.70;99.90;;;;;;5113717;28;20303;-78
2023/07/23 00:07:11;;;;;;;4.90;3.50;;;14.80;99.90;;;;;;5115422;27;20608;-77
2023/07/23 00:09:40;;;;;;;6.07;3.60;;;14.70;99.90;;;;;;5134323;27;20244;-78
2023/07/23 00:12:09;;;;;;;5.87;3.83;;;14.70;99.90;;;;;;5134516;27;20207;-78
2023/07/23 00:14:38;;;;;;;6.10;4.17;;;14.70;99.90;;;;;;5134775;27;20595;-77
2023/07/23 00:17:07;;;;;;;5.87;4.17;;;14.70;99.90;;;;;;5124833;27;20279;-79
2023/07/23 00:19:36;;;;;;;5.67;3.80;;;14.70;99.90;;;;;;5113236;28;20210;-77
2023/07/23 00:22:04;;;;;;;4.60;3.73;;;14.70;99.90;;;;;;5112898;28;20236;-77
2023/07/23 00:24:32;;;;;;;4.63;3.77;;;14.60;99.90;;;;;;5113433;28;20601;-78
2023/07/23 00:27:01;;;;;;;5.87;4.10;;;14.60;99.90;;;;;;5113743;28;20206;-76
2023/07/23 00:29:30;;;;;;;4.27;3.63;;;14.60;99.90;;;;;;5113754;28;20729;-77
2023/07/23 00:31:58;;;;;;;5.40;4.27;;;14.50;99.90;;;;;;5112888;28;20222;-78
2023/07/23 00:34:27;;;;;;;5.03;3.80;;;14.50;99.90;;;;;;5113187;28;20237;-80
2023/07/23 00:36:55;;;;;;;5.40;3.90;;;14.50;99.90;;;;;;5113283;28;20639;-77
2023/07/23 00:39:23;;;;;;;5.10;3.53;;;14.40;99.90;;;;;;5112881;28;20202;-78
2023/07/23 00:41:51;;;;;;;6.30;3.90;;;14.40;99.90;;;;;;5112712;28;20263;-78
2023/07/23 00:44:20;;;;;;;6.20;4.10;;;14.40;99.90;;;;;;5114196;28;20201;-78
2023/07/23 00:46:50;;;;;;;4.80;3.60;;;14.30;99.90;;;;;;5117522;28;20218;-78
2023/07/23 00:49:18;;;;;;;4.40;3.70;;;14.30;99.90;;;;;;5117867;28;20205;-78
2023/07/23 00:51:47;;;;;;;6.30;4.17;;;14.30;99.90;;;;;;5117233;28;20201;-77
2023/07/23 00:54:15;;;;;;;5.07;3.83;;;14.30;99.90;;;;;;5116811;28;20209;-78
2023/07/23 00:56:45;;;;;;;5.67;3.67;;;14.30;99.90;;;;;;5116934;28;20248;-77
2023/07/23 00:59:14;;;;;;;5.73;3.90;;;14.30;99.90;;;;;;5117389;28;20222;-78
2023/07/23 01:01:42;;;;;;;5.10;3.90;;;14.30;99.90;;;;;;5117104;28;20217;-77
2023/07/23 01:04:12;;;;;;;6.27;4.10;;;14.20;99.90;;;;;;5117072;28;20206;-78
2023/07/23 01:06:42;;;;;;;6.80;4.07;;;14.20;99.90;;;;;;5117208;28;20218;-78
2023/07/23 01:09:12;;;;;;;5.23;4.10;;;14.20;99.90;;;;;;5117152;28;20202;-78
2023/07/23 01:11:41;;;;;;;5.20;3.83;;;14.10;99.90;;;;;;5128389;27;20250;-77
2023/07/23 01:14:09;;;;;;;5.00;3.63;;;14.10;99.90;;;;;;5137491;27;20233;-77
2023/07/23 01:16:39;;;;;;;4.73;3.67;;;14.10;99.90;;;;;;5137253;27;20197;-78
2023/07/23 01:19:09;;;;;;;5.63;4.10;;;14.10;99.90;;;;;;5137585;27;20217;-80
2023/07/23 01:21:38;;;;;;;5.70;3.93;;;14.10;99.90;;;;;;5124933;27;20229;-77
2023/07/23 01:24:08;;;;;;;4.70;3.90;;;14.10;99.90;;;;;;5116356;28;20283;-79
2023/07/23 01:26:36;;;;;;;5.33;3.50;;;14.10;99.90;;;;;;5135687;27;20229;-79
2023/07/23 01:29:04;;;;;;;5.83;4.20;;;14.10;99.90;;;;;;5132299;27;20644;-79
2023/07/23 01:31:33;;;;;;;6.67;3.80;;;14.10;99.90;;;;;;5118332;28;20214;-78
2023/07/23 01:34:05;;;;;;;6.17;4.30;;;14.20;99.90;;;;;;5118300;28;20271;-79
2023/07/23 01:36:33;;;;;;;5.67;3.87;;;14.20;99.90;;;;;;5117796;28;20675;-78
2023/07/23 01:39:02;;;;;;;6.00;3.73;;;14.20;99.90;;;;;;5117199;27;20214;-78
2023/07/23 01:41:38;;;;;;;6.60;3.90;;;14.30;99.90;;;;;;5116936;28;20316;-77
2023/07/23 01:44:06;;;;;;;7.83;4.00;;;14.30;99.90;;;;;;5116773;28;20202;-77
2023/07/23 01:46:34;;;;;;;4.63;3.80;;;14.30;99.90;;;;;;5115734;28;20623;-77
2023/07/23 01:49:03;;;;;;;5.30;4.27;;;14.30;99.90;;;;;;5115488;27;20202;-76
2023/07/23 01:51:33;;;;;;;5.67;3.80;;;14.20;99.90;;;;;;5116628;28;20657;-79
2023/07/23 01:54:01;;;;;;;5.83;3.97;;;14.20;99.90;;;;;;5115780;28;20228;-77
2023/07/23 01:56:29;;;;;;;6.57;4.27;;;14.20;99.90;;;;;;5115411;28;20278;-79
2023/07/23 01:58:59;;;;;;;8.07;4.37;;;14.20;99.90;;;;;;5116377;27;20230;-78
2023/07/23 02:01:27;;;;;;;6.43;4.13;;;14.20;99.90;;;;;;5116754;28;20255;-77
2023/07/23 02:03:55;;;;;;;6.33;3.83;;;14.20;99.90;;;;;;5116228;28;20206;-77
2023/07/23 02:06:24;;;;;;;6.40;4.20;;;14.20;99.90;;;;;;5115978;28;20313;-79
2023/07/23 02:08:52;;;;;;;8.57;3.97;;;14.20;99.90;;;;;;5116371;27;20205;-79
2023/07/23 02:11:20;;;;;;;5.37;3.97;;;14.20;99.90;;;;;;5116860;28;20210;-78
2023/07/23 02:13:48;;;;;;;6.20;3.97;;;14.20;99.90;;;;;;5115498;28;20199;-78
2023/07/23 02:16:18;;;;;;;6.50;4.23;;;14.20;99.90;;;;;;5116272;27;20289;-78
2023/07/23 02:18:47;;;;;;;4.53;3.67;;;14.20;99.90;;;;;;5115854;28;20641;-78
2023/07/23 02:21:15;;;;;;;6.40;3.90;;;14.20;99.90;;;;;;5115724;28;20232;-77
2023/07/23 02:23:44;;;;;;;4.97;3.87;;;14.10;99.90;;;;;;5121822;27;20205;-77
2023/07/23 02:26:12;;;;;;;5.47;3.80;;;14.20;99.90;;;;;;5135261;27;20266;-79
2023/07/23 02:28:43;;;;;;;5.53;3.90;;;14.10;99.90;;;;;;5136993;27;20209;-77
2023/07/23 02:31:12;;;;;;;4.67;3.90;;;14.10;99.90;;;;;;5137760;27;20220;-78
2023/07/23 02:33:42;;;;;;;4.77;3.60;;;14.10;99.90;;;;;;5136733;27;20541;-81
2023/07/23 02:36:10;;;;;;;5.33;3.77;;;14.20;99.90;;;;;;5137006;27;20229;-81
2023/07/23 02:38:38;;;;;;;6.37;3.53;;;14.20;99.90;;;;;;5137125;27;20205;-78
2023/07/23 02:41:08;;;;;;;7.73;3.47;;;14.20;99.90;;;;;;5129295;27;20721;-78
2023/07/23 02:43:36;;;;;;;6.37;3.70;;;14.20;99.90;;;;;;5114780;28;20213;-80
2023/07/23 02:46:04;;;;;;;5.70;3.90;;;14.30;99.90;;;;;;5116950;28;20218;-81
2023/07/23 02:48:32;;;;;;;5.53;3.80;;;14.30;99.90;;;;;;5122111;28;20216;-79
2023/07/23 02:51:02;;;;;;;5.27;3.80;;;14.30;99.90;;;;;;5119200;28;20214;-77
2023/07/23 02:53:30;;;;;;;4.97;3.73;;;14.30;99.90;;;;;;5116241;28;20206;-80
2023/07/23 02:55:58;;;;;;;5.20;3.77;;;14.30;99.90;;;;;;5115215;28;20621;-79
2023/07/23 02:58:27;;;;;;;5.77;3.90;;;14.30;99.90;;;;;;5114758;28;20209;-80
2023/07/23 03:00:56;;;;;;;6.47;3.90;;;14.30;99.90;;;;;;5114423;27;20248;-78
2023/07/23 03:03:25;;;;;;;6.17;3.73;;;14.30;99.90;;;;;;5115080;28;20648;-81
2023/07/23 03:05:53;;;;;;;5.83;3.80;;;14.30;99.90;;;;;;5114875;28;20668;-79
2023/07/23 03:08:22;;;;;;;5.67;3.97;;;14.30;99.90;;;;;;5114091;27;20210;-80
2023/07/23 03:10:51;;;;;;;6.47;3.87;;;14.30;99.90;;;;;;5114857;28;20251;-76
2023/07/23 03:13:19;;;;;;;5.97;3.80;;;14.40;99.90;;;;;;5115283;28;20274;-80
2023/07/23 03:15:47;;;;;;;4.60;3.43;;;14.30;99.90;;;;;;5115013;27;20311;-79
2023/07/23 03:18:15;;;;;;;5.80;4.00;;;14.30;99.90;;;;;;5114649;28;20640;-77
2023/07/23 03:20:43;;;;;;;5.17;3.67;;;14.30;99.90;;;;;;5115085;28;20283;-81
2023/07/23 03:23:12;;;;;;;4.70;3.60;;;14.30;99.90;;;;;;5128390;27;20205;-79
2023/07/23 03:25:41;;;;;;;5.07;3.80;;;14.30;99.90;;;;;;5131543;27;20252;-80
2023/07/23 03:28:09;;;;;;;4.50;3.57;;;14.30;99.90;;;;;;5114027;28;20221;-79
2023/07/23 03:30:37;;;;;;;4.90;3.60;;;14.20;99.90;;;;;;5113920;28;20206;-78
2023/07/23 03:33:06;;;;;;;6.97;3.87;;;14.20;99.90;;;;;;5114173;28;20218;-80
2023/07/23 03:35:34;;;;;;;5.13;3.90;;;14.20;99.90;;;;;;5114048;27;20621;-79
2023/07/23 03:38:02;;;;;;;5.33;3.90;;;14.20;99.90;;;;;;5119728;27;20193;-79
2023/07/23 03:40:30;;;;;;;6.27;3.83;;;14.20;99.90;;;;;;5135309;27;20198;-80
2023/07/23 03:43:00;;;;;;;5.33;3.87;;;14.20;99.90;;;;;;5131832;27;20221;-79
2023/07/23 03:45:28;;;;;;;7.23;3.67;;;14.10;99.90;;;;;;5115568;28;20595;-80
2023/07/23 03:47:56;;;;;;;7.40;3.70;;;14.10;99.90;;;;;;5117770;28;20687;-81
2023/07/23 03:50:25;;;;;;;5.03;4.03;;;14.10;99.90;;;;;;5115597;28;20202;-78
2023/07/23 03:52:53;;;;;;;5.63;3.43;;;14.10;99.90;;;;;;5113724;28;20617;-78
2023/07/23 03:55:22;;;;;;;6.77;3.40;;;14.10;99.90;;;;;;5114003;28;20202;-79
2023/07/23 03:57:50;;;;;;;5.37;3.67;;;14.10;99.90;;;;;;5113268;28;20232;-77
2023/07/23 04:00:19;;;;;;;5.20;3.80;;;14.10;99.90;;;;;;5113887;27;20656;-78
2023/07/23 04:02:48;;;;;;;4.90;3.70;;;14.10;99.90;;;;;;5133721;27;20674;-78
2023/07/23 04:05:16;;;;;;;5.73;3.70;;;14.00;99.90;;;;;;5133819;27;20594;-78
2023/07/23 04:07:44;;;;;;;6.23;4.03;;;14.00;99.90;;;;;;5134668;27;20244;-80
2023/07/23 04:10:12;;;;;;;4.30;3.90;;;14.10;99.90;;;;;;5129513;27;20210;-77
2023/07/23 04:12:40;;;;;;;5.27;3.60;;;14.10;99.90;;;;;;5113682;28;20209;-77
2023/07/23 04:15:09;;;;;;;5.70;3.80;;;14.00;99.90;;;;;;5113127;28;20214;-78
2023/07/23 04:17:38;;;;;;;4.90;3.90;;;14.10;99.90;;;;;;5112984;28;20256;-78
2023/07/23 04:20:08;;;;;;;5.07;4.07;;;14.10;99.90;;;;;;5113056;28;20644;-78
2023/07/23 04:22:36;;;;;;;4.60;3.60;;;14.10;99.90;;;;;;5133236;27;20435;-81
2023/07/23 04:25:05;;;;;;;4.63;3.30;;;14.10;99.90;;;;;;5134033;27;20269;-80
2023/07/23 04:27:33;;;;;;;6.13;4.10;;;14.10;99.90;;;;;;5133993;27;20275;-79
2023/07/23 04:30:01;;;;;;;5.80;4.10;;;14.10;99.90;;;;;;5113828;28;20251;-78
2023/07/23 04:32:29;;;;;;;4.90;3.73;;;14.10;99.90;;;;;;5112425;28;20210;-77
2023/07/23 04:34:59;;;;;;;6.03;3.60;;;14.10;99.90;;;;;;5113138;28;20209;-79
2023/07/23 04:37:28;;;;;;;5.50;3.67;;;14.20;99.90;;;;;;5113154;28;20233;-77
2023/07/23 04:39:56;;;;;;;4.13;3.63;;;14.20;99.90;;;;;;5113597;28;20209;-80
2023/07/23 04:42:24;;;;;;;4.67;3.50;;;14.20;99.90;;;;;;5112588;28;20230;-77
2023/07/23 04:44:52;;;;;;;6.43;4.00;;;14.20;99.90;;;;;;5113041;28;20728;-78
2023/07/23 04:47:20;;;;;;;4.47;3.43;;;14.30;99.90;;;;;;5112937;28;20222;-80
2023/07/23 04:49:49;;;;;;;5.27;4.00;;;14.30;99.90;;;;;;5112957;28;20288;-79
2023/07/23 04:52:19;;;;;;;8.90;3.90;;;14.30;99.90;;;;;;5112459;28;20240;-79
2023/07/23 04:54:47;;;;;;;4.37;3.53;;;14.40;99.90;;;;;;5113001;28;20671;-79
2023/07/23 04:57:15;;;;;;;6.43;3.20;;;14.40;99.90;;;;;;5113191;28;20259;-78
2023/07/23 04:59:43;;;;;;;5.97;3.73;;;14.50;99.90;;;;;;5105228;28;20233;-78
2023/07/23 05:02:12;;;;;;;6.27;3.93;;;14.50;99.90;;;;;;5112654;28;20571;-80
2023/07/23 05:04:40;;;;;;;5.27;3.70;;;14.60;99.90;;;;;;5112554;28;20301;-79
2023/07/23 05:07:08;;;;;;;6.60;3.43;;;14.70;99.90;;;;;;5113078;28;20210;-79
2023/07/23 05:09:38;;;;;;;5.67;3.43;;;14.70;99.90;;;;;;5112471;28;20214;-78
2023/07/23 05:12:07;;;;;;;5.83;3.70;;;14.80;99.90;;;;;;5112684;28;20283;-77
2023/07/23 05:14:35;;;;;;;5.40;3.80;;;14.90;99.90;;;;;;5112344;28;20210;-79
2023/07/23 05:17:04;;;;;;;4.37;3.43;;;15.00;99.90;;;;;;5113283;28;20267;-78
2023/07/23 05:19:35;;;;;;;8.63;3.50;;;15.00;99.90;;;;;;5120386;28;20220;-79
2023/07/23 05:22:03;;;;;;;6.60;3.90;;;15.10;99.90;;;;;;5131958;28;20220;-77
2023/07/23 05:24:31;;;;;;;4.40;3.60;;;15.20;99.90;;;;;;5113163;28;20206;-78
2023/07/23 05:27:01;;;;;;;4.90;4.00;;;15.30;99.90;;;;;;5114456;28;20281;-79
2023/07/23 05:29:29;;;;;;;5.03;3.80;;;15.40;99.90;;;;;;5114137;28;20279;-77
2023/07/23 05:31:57;;;;;;;8.53;3.97;;;15.40;99.90;;;;;;5125701;27;20295;-78
2023/07/23 05:34:25;;;;;;;5.33;3.40;;;15.50;99.90;;;;;;5138467;27;20221;-78
2023/07/23 05:36:53;;;;;;;5.53;3.67;;;15.60;99.90;;;;;;5136945;27;20233;-79
2023/07/23 05:39:21;;;;;;;4.30;3.37;;;15.70;99.90;;;;;;5136386;27;20305;-75
2023/07/23 05:41:50;;;;;;;5.13;3.30;;;15.80;99.90;;;;;;5118668;28;20567;-80
2023/07/23 05:44:19;;;;;;;6.27;3.40;;;16.00;99.90;;;;;;5117446;28;20260;-81
2023/07/23 05:46:48;;;;;;;5.20;3.33;;;16.10;99.90;;;;;;5120001;28;20259;-79
2023/07/23 05:49:16;;;;;;;5.47;3.60;;;16.20;99.90;;;;;;5116412;28;20275;-78
2023/07/23 05:51:44;;;;;;;6.23;3.60;;;16.30;99.90;;;;;;5117404;28;20194;-78
2023/07/23 05:54:12;;;;;;;4.43;3.47;;;16.50;99.90;;;;;;5116820;28;20265;-79
2023/07/23 05:56:40;;;;;;;5.70;3.30;;;16.70;99.90;;;;;;5115795;27;20207;-79
2023/07/23 05:59:08;;;;;;;5.37;3.30;;;17.10;99.90;;;;;;5117611;28;20618;-80
2023/07/23 06:01:38;;;;;;;3.73;3.33;;;17.60;99.90;;;;;;5119749;28;20215;-79
2023/07/23 06:04:06;;;;;;;5.10;3.30;;;18.20;99.90;;;;;;5123327;28;20259;-81
2023/07/23 06:06:35;;;;;;;4.33;3.00;;;19.10;99.90;;;;;;5121327;27;20206;-81
2023/07/23 06:09:04;;;;;;;3.70;3.00;;;20.10;99.90;;;;;;5125390;28;20218;-82
2023/07/23 06:11:33;;;;;;;4.10;3.20;;;21.00;99.90;;;;;;5124950;28;20212;-83
2023/07/23 06:14:06;;;;;;;6.47;2.90;;;22.20;99.90;;;;;;5124435;27;20304;-82
2023/07/23 06:16:35;;;;;;;4.40;2.90;;;23.20;99.90;;;;;;5120268;28;20202;-83
2023/07/23 06:19:05;;;;;;;6.50;3.17;;;23.80;96.80;;;;;;5141660;27;20668;-82
2023/07/23 06:21:34;;;;;;;3.90;2.97;;;24.10;94.70;;;;;;5139381;27;20554;-85
2023/07/23 06:24:02;;;;;;;5.13;2.60;;;24.10;93.80;;;;;;5130956;27;20232;-84
2023/07/23 06:26:30;;;;;;;5.90;2.70;;;24.20;93.10;;;;;;5127923;28;20206;-83
2023/07/23 06:28:58;;;;;;;6.10;3.30;;;24.80;92.00;;;;;;5123760;28;20228;-84
2023/07/23 06:31:26;;;;;;;3.40;3.10;;;24.80;91.60;;;;;;5121725;28;20244;-83
2023/07/23 06:33:55;;;;;;;3.07;2.70;;;24.90;91.70;;;;;;5125192;28;20724;-84
2023/07/23 06:36:25;;;;;;;4.20;2.78;;;25.00;91.50;;;;;;5120610;28;20316;-84
2023/07/23 06:38:54;;;;;;;3.70;2.70;;;25.00;91.20;;;;;;5120939;28;20612;-84
2023/07/23 06:41:31;;;;;;;4.72;2.97;;;25.30;91.00;;;;;;5131813;27;20221;-83
2023/07/23 06:44:00;;;;;;;7.05;2.83;;;25.40;90.20;;;;;;5144662;27;20300;-83
2023/07/23 06:46:28;;;;;;;2.55;2.35;;;25.60;89.50;;;;;;5143510;27;20215;-82
2023/07/23 06:48:59;;;;;;;4.05;2.70;;;26.00;86.50;;;;;;5133191;27;20640;-79
2023/07/23 06:51:28;;;;;;;4.93;2.45;;;26.20;78.60;;;;;;5124457;28;20210;-83
2023/07/23 06:53:57;;;;;;;3.33;2.88;;;26.30;80.70;;;;;;5118000;28;20224;-83
2023/07/23 06:56:25;;;;;;;3.40;2.95;;;27.40;79.50;;;;;;5122288;27;20233;-83
2023/07/23 06:58:54;;;;;;;2.70;2.50;;;27.90;71.70;;;;;;5147671;27;20219;-84
2023/07/23 07:01:23;;;;;;;3.60;2.63;;;28.20;67.90;;;;;;5138550;27;20205;-83
2023/07/23 07:03:51;;;;;;;2.83;2.50;;;28.20;64.40;;;;;;5138671;27;20214;-83
2023/07/23 07:06:19;;;;;;;2.60;2.38;;;28.40;64.40;;;;;;5133942;27;20207;-84
2023/07/23 07:08:49;;;;;;;5.60;2.72;;;28.90;61.10;;;;;;5116144;28;20230;-85
2023/07/23 07:11:17;;;;;;;3.72;2.75;;;29.10;58.60;;;;;;5116467;28;20255;-84
2023/07/23 07:13:45;;;;;;;3.40;2.40;;;30.10;56.60;;;;;;5118781;28;20210;-83
2023/07/23 07:16:13;;;;;;;3.00;2.70;;;30.60;54.60;;;;;;5119763;27;20254;-84
2023/07/23 07:18:42;;;;;;;3.88;2.60;;;30.60;53.00;;;;;;5131229;27;20221;-83
2023/07/23 07:21:10;;;;;;;3.38;2.35;;;30.40;52.30;;;;;;5140551;27;20209;-85
2023/07/23 07:23:38;;;;;;;3.05;2.60;;;30.70;51.20;;;;;;5136637;27;20262;-82
2023/07/23 07:26:08;;;;;;;2.85;2.40;;;31.00;49.80;;;;;;5130391;27;20231;-81
2023/07/23 07:28:36;;;;;;;4.35;2.45;;;30.40;50.00;;;;;;5118996;28;20202;-83
2023/07/23 07:31:04;;;;;;;3.00;2.42;;;29.90;50.40;;;;;;5116139;28;20300;-85
2023/07/23 07:33:32;;;;;;;2.83;2.50;;;29.90;48.90;;;;;;5116170;28;20214;-82
2023/07/23 07:36:01;;;;;;;3.20;2.58;;;30.70;48.50;;;;;;5115872;28;20230;-84
2023/07/23 07:38:30;;;;;;;3.60;2.60;;;31.40;47.10;;;;;;5117035;28;20672;-84
2023/07/23 07:41:01;;;;;;;4.43;2.28;;;31.80;45.30;;;;;;5117678;28;20202;-84
2023/07/23 07:43:31;;;;;;;2.97;2.67;;;32.10;42.20;;;;;;5114875;28;20648;-85
2023/07/23 07:46:02;;;;;;;3.17;2.75;;;33.10;41.10;;;;;;5117982;28;20209;-84
2023/07/23 07:48:30;;;;;;;3.15;2.30;;;33.80;38.20;;;;;;5116687;28;20217;-85
2023/07/23 07:51:00;;;;;;;3.17;2.40;;;34.40;36.70;;;;;;5119234;28;20202;-83
2023/07/23 07:53:28;;;;;;;2.80;2.50;;;35.00;34.10;;;;;;5118776;27;20206;-85
2023/07/23 07:55:57;;;;;;;2.65;2.38;;;35.20;31.60;;;;;;5116918;28;20206;-85
2023/07/23 07:58:26;;;;;;;3.85;2.53;;;34.50;31.00;;;;;;5119759;28;20289;-82
2023/07/23 08:00:57;;;;;;;3.92;2.58;;;34.70;31.30;;;;;;5117029;27;20788;-84
2023/07/23 08:03:28;;;;;;;2.60;2.40;;;34.70;30.70;;;;;;5115867;28;20190;-83
2023/07/23 08:05:58;;;;;;;2.88;2.58;;;33.20;32.20;;;;;;5115590;28;20216;-83
2023/07/23 08:08:28;;;;;;;3.40;2.67;;;33.60;31.40;;;;;;5126564;27;20201;-83
2023/07/23 08:10:58;;;;;;;2.55;2.35;;;33.60;30.70;;;;;;5139345;27;20209;-82
2023/07/23 08:13:26;;;;;;;2.88;2.55;;;33.20;32.50;;;;;;5141540;27;20185;-85
2023/07/23 08:15:57;;;;;;;2.58;2.35;;;33.50;30.60;;;;;;5136448;27;20206;-82
2023/07/23 08:18:25;;;;;;;3.10;2.53;;;33.70;30.80;;;;;;5115061;28;20231;-83
2023/07/23 08:20:57;;;;;;;3.50;2.53;;;33.90;31.40;;;;;;5114157;28;20235;-84
2023/07/23 08:23:27;;;;;;;3.15;2.85;;;33.70;31.10;;;;;;5115957;28;20206;-82
2023/07/23 08:25:58;;;;;;;3.42;2.80;;;34.60;30.10;;;;;;5116253;28;20210;-81
2023/07/23 08:28:29;;;;;;;4.20;2.72;;;34.30;28.40;;;;;;5119362;28;20206;-81
2023/07/23 08:31:01;;;;;;;2.58;2.38;;;34.70;29.70;;;;;;5118715;28;20209;-84
2023/07/23 08:33:30;;;;;;;3.13;2.55;;;34.70;29.60;;;;;;5121987;28;20183;-83
2023/07/23 08:36:00;;;;;;;2.70;2.50;;;35.00;30.70;;;;;;5122031;28;20244;-83
2023/07/23 08:38:29;;;;;;;3.35;2.47;;;35.00;28.80;;;;;;5121328;28;20206;-83
2023/07/23 08:41:03;;;;;;;2.92;2.30;;;35.30;28.50;;;;;;5128141;22;20298;-85
2023/07/23 08:44:11;;;;;;;4.60;2.63;;;35.60;25.60;;;;;;5039657;28;20188;-83
2023/07/23 08:46:45;;;;;;;2.75;2.55;;;34.70;25.80;;;;;;5020499;28;20278;-84
2023/07/23 08:49:16;;;;;;;4.63;2.60;;;34.90;26.00;;;;;;5038358;28;20243;-82
2023/07/23 08:51:46;;;;;;;3.63;2.60;;;33.50;25.50;;;;;;5038727;28;20282;-82
2023/07/23 08:54:16;;;;;;;2.83;2.38;;;32.30;25.70;;;;;;5036543;28;20646;-82
2023/07/23 08:56:45;;;;;;;4.25;2.42;;;31.70;26.80;;;;;;5040097;28;20208;-81
2023/07/23 08:59:13;;;;;;;3.80;2.50;;;31.70;27.70;;;;;;5031739;28;20220;-83
2023/07/23 09:01:44;;;;;;;3.03;2.50;;;32.20;28.00;;;;;;5020310;28;20628;-82
2023/07/23 09:04:14;;;;;;;2.72;2.50;;;32.20;29.00;;;;;;5026288;28;20217;-83
2023/07/23 09:06:43;;;;;;;2.67;2.30;;;32.40;27.40;;;;;;5035672;28;20229;-84
2023/07/23 09:09:13;;;;;;;2.63;2.42;;;33.00;29.00;;;;;;5026606;28;20240;-82
2023/07/23 09:11:42;;;;;;;6.47;2.55;;;33.00;24.90;;;;;;5028832;28;20199;-80
2023/07/23 09:14:12;;;;;;;2.75;2.50;;;32.90;25.30;;;;;;5043558;28;20213;-80
2023/07/23 09:16:42;;;;;;;2.90;2.70;;;33.50;24.80;;;;;;5047386;28;21756;-83
2023/07/23 09:19:12;;;;;;;2.53;2.33;;;34.70;24.40;;;;;;5028518;28;20210;-83
2023/07/23 09:21:42;;;;;;;3.15;2.58;;;35.50;22.50;;;;;;5028924;28;20213;-83
2023/07/23 09:24:16;;;;;;;3.88;2.53;;;36.10;22.40;;;;;;5025258;28;20214;-83
2023/07/23 09:26:48;;;;;;;3.80;2.55;;;35.80;21.00;;;;;;5021153;28;20221;-80
2023/07/23 09:29:18;;;;;;;3.15;2.85;;;36.00;22.40;;;;;;5018499;28;20263;-82
2023/07/23 09:31:49;;;;;;;3.10;2.70;;;35.40;22.20;;;;;;5019019;28;20566;-83
2023/07/23 09:34:21;;;;;;;3.05;2.65;;;35.50;21.20;;;;;;5018740;28;20595;-83
2023/07/23 09:36:53;;;;;;;2.97;2.70;;;36.20;20.90;;;;;;5036731;28;20220;-83
2023/07/23 09:39:25;;;;;;;4.97;2.50;;;36.40;22.10;;;;;;5039388;28;20209;-84
2023/07/23 09:41:54;;;;;;;3.10;2.80;;;35.70;22.40;;;;;;5038019;28;20283;-81
2023/07/23 09:44:25;;;;;;;3.83;2.70;;;34.50;21.60;;;;;;5027496;28;20233;-82
2023/07/23 09:46:54;;;;;;;4.40;2.78;;;33.10;22.00;;;;;;5024413;28;20260;-84
2023/07/23 09:49:29;;;;;;;3.63;2.78;;;32.40;23.90;;;;;;5019668;28;20240;-80
2023/07/23 09:51:57;;;;;;;3.10;2.65;;;32.10;25.00;;;;;;5032021;28;20731;-81
2023/07/23 09:54:27;;;;;;;3.22;2.65;;;32.60;24.70;;;;;;5042045;28;20259;-83
2023/07/23 09:56:55;;;;;;;3.38;2.70;;;34.20;23.60;;;;;;5040438;28;20264;-80
2023/07/23 09:59:24;;;;;;;4.65;2.70;;;34.30;22.10;;;;;;5027081;28;20214;-84
2023/07/23 10:01:53;;;;;;;4.88;2.88;;;33.90;22.00;;;;;;5019984;28;20222;-83
2023/07/23 10:04:27;;;;;;;3.25;2.50;;;35.00;22.10;;;;;;5021901;28;20205;-84
2023/07/23 10:06:56;;;;;;;3.20;2.90;;;35.00;21.60;;;;;;5055620;22;20240;-81
2023/07/23 10:09:25;;;;;;;3.85;2.90;;;34.40;22.40;;;;;;5050676;28;20209;-82
2023/07/23 10:11:53;;;;;;;3.08;2.78;;;34.40;25.70;;;;;;5024244;28;20229;-82
2023/07/23 10:14:22;;;;;;;3.90;2.75;;;34.60;23.40;;;;;;5057985;28;20219;-84
2023/07/23 10:16:53;;;;;;;3.22;2.80;;;34.90;23.10;;;;;;5047445;28;20205;-82
2023/07/23 10:19:22;;;;;;;2.95;2.55;;;35.60;22.40;;;;;;5042704;28;20255;-84
2023/07/23 10:21:52;;;;;;;3.67;2.92;;;35.80;21.70;;;;;;5036673;28;20244;-80
2023/07/23 10:24:20;;;;;;;3.33;3.03;;;35.80;20.80;;;;;;5035541;28;20254;-82
2023/07/23 10:26:49;;;;;;;5.20;3.20;;;34.60;21.60;;;;;;5035418;28;20215;-79
2023/07/23 10:29:21;;;;;;;3.38;3.08;;;34.40;21.50;;;;;;5036368;28;20208;-82
2023/07/23 10:31:56;;;;;;;3.40;3.10;;;34.90;22.20;;;;;;5036138;28;20209;-84
2023/07/23 10:34:43;;;;;;;3.38;3.00;;;33.90;22.50;;;;;;5037264;28;20238;-84
2023/07/23 10:37:14;;;;;;;4.10;3.30;;;33.40;23.10;;;;;;5036450;28;20255;-82
2023/07/23 10:39:44;;;;;;;4.60;3.30;;;33.80;24.10;;;;;;5036485;28;20205;-80
2023/07/23 10:42:37;;;;;;;4.35;2.97;;;34.00;23.50;;;;;;5036302;28;20481;-82
2023/07/23 10:45:23;;;;;;;3.95;3.28;;;33.60;23.40;;;;;;5038067;28;20209;-83
2023/07/23 10:47:52;;;;;;;3.97;3.40;;;34.30;23.40;;;;;;5036158;28;20287;-85
2023/07/23 10:50:22;;;;;;;4.45;3.30;;;34.40;22.60;;;;;;5035201;28;20204;-81
2023/07/23 10:52:53;;;;;;;3.33;3.03;;;34.10;22.40;;;;;;5035392;28;20212;-83
2023/07/23 10:55:45;;;;;;;4.72;3.30;;;34.40;22.80;;;;;;5042156;28;20200;-83
2023/07/23 10:58:14;;;;;;;4.35;3.95;;;34.60;22.60;;;;;;5051511;28;20239;-81
2023/07/23 11:00:44;;;;;;;4.82;4.32;;;35.20;21.00;;;;;;5054782;28;20732;-81
2023/07/23 11:03:16;;;;;;;5.28;3.85;;;36.10;21.70;;;;;;5046339;28;20213;-83
2023/07/23 11:05:45;;;;;;;5.10;3.65;;;36.10;19.40;;;;;;5038871;28;20559;-83
2023/07/23 11:08:16;;;;;;;7.15;4.20;;;36.10;19.00;;;;;;5037034;28;20286;-80
2023/07/23 11:10:54;;;;;;;7.00;4.30;;;36.00;19.80;;;;;;5039081;28;20377;-82
2023/07/23 11:13:28;;;;;;;4.10;3.70;;;35.70;20.10;;;;;;5035959;28;20595;-84
2023/07/23 11:15:57;;;;;;;5.05;4.38;;;35.40;21.50;;;;;;5039264;28;20607;-83
2023/07/23 11:18:25;;;;;;;4.65;4.03;;;35.30;19.40;;;;;;5036885;28;20566;-78
2023/07/23 11:20:54;;;;;;;5.50;4.25;;;34.70;20.10;;;;;;5039398;28;20236;-83
2023/07/23 11:23:25;;;;;;;6.80;5.00;;;34.70;21.50;;;;;;5036819;28;20292;-80
2023/07/23 11:25:57;;;;;;;5.63;4.80;;;33.90;20.40;;;;;;5037969;28;20215;-81
2023/07/23 11:28:29;;;;;;;6.85;4.72;;;34.00;20.80;;;;;;5045802;28;20216;-83
2023/07/23 11:30:58;;;;;;;6.05;4.65;;;33.80;21.60;;;;;;5056908;28;20208;-78
2023/07/23 11:33:29;;;;;;;9.75;5.57;;;33.60;20.20;;;;;;5054247;28;20243;-77
2023/07/23 11:35:59;;;;;;;7.05;5.07;;;33.50;21.00;;;;;;5054202;28;20258;-77
2023/07/23 11:38:32;;;;;;;6.65;5.60;;;33.20;21.60;;;;;;5045392;28;20254;-81
2023/07/23 11:41:01;;;;;;;7.18;5.63;;;33.20;22.50;;;;;;5034561;28;20229;-79
2023/07/23 11:43:33;;;;;;;8.63;5.57;;;33.30;20.50;;;;;;5032976;28;20791;-79
2023/07/23 11:46:01;;;;;;;7.50;5.20;;;32.90;22.70;;;;;;5033417;28;20217;-77
2023/07/23 11:48:30;;;;;;;7.22;5.60;;;32.60;23.10;;;;;;5034090;28;20270;-78
2023/07/23 11:51:00;;;;;;;7.38;5.53;;;32.30;23.40;;;;;;5033908;28;20212;-79
2023/07/23 11:53:35;;;;;;;6.60;5.15;;;32.40;24.30;;;;;;5034497;28;20205;-80
2023/07/23 11:56:05;;;;;;;7.95;5.70;;;32.00;23.90;;;;;;5034394;28;20578;-79
2023/07/23 11:58:35;;;;;;;8.80;5.18;;;32.50;23.40;;;;;;5033743;28;20248;-76
2023/07/23 12:01:04;;;;;;;8.32;5.40;;;32.70;24.20;;;;;;5033664;28;20303;-79
2023/07/23 12:03:38;;;;;;;8.90;5.57;;;32.90;24.20;;;;;;5033075;28;20271;-77
2023/07/23 12:06:07;;;;;;;7.30;5.45;;;32.90;22.30;;;;;;5035407;28;20209;-79
2023/07/23 12:08:39;;;;;;;7.88;6.38;;;33.00;22.40;;;;;;5053220;28;20228;-80
2023/07/23 12:11:11;;;;;;;8.00;5.78;;;32.60;22.70;;;;;;5053613;28;20333;-80
2023/07/23 12:13:44;;;;;;;7.85;6.18;;;32.60;23.70;;;;;;5052549;28;20208;-81
2023/07/23 12:16:32;;;;;;;7.25;5.47;;;32.60;23.50;;;;;;5033184;28;20205;-81
2023/07/23 12:19:03;;;;;;;10.43;6.20;;;32.90;23.90;;;;;;5033151;28;20626;-80
2023/07/23 12:21:34;;;;;;;11.27;6.30;;;33.10;23.70;;;;;;5033274;28;20282;-80
2023/07/23 12:24:17;;;;;;;7.00;5.70;;;33.30;24.50;;;;;;5033107;28;20201;-79
2023/07/23 12:26:47;;;;;;;6.53;5.82;;;33.10;22.00;;;;;;5035379;28;20209;-79
2023/07/23 12:29:16;;;;;;;7.22;6.13;;;33.30;22.70;;;;;;5042139;28;20716;-77
2023/07/23 12:31:47;;;;;;;8.15;6.72;;;33.10;23.00;;;;;;5035598;28;20213;-81
2023/07/23 12:34:17;;;;;;;7.60;5.95;;;32.90;23.00;;;;;;5035858;28;20547;-79
2023/07/23 12:36:45;;;;;;;8.20;5.93;;;33.00;22.90;;;;;;5033191;28;20663;-81
2023/07/23 12:39:14;;;;;;;8.13;6.25;;;33.00;23.30;;;;;;5036298;28;20244;-80
2023/07/23 12:41:43;;;;;;;9.20;5.93;;;32.90;22.90;;;;;;5040159;28;20239;-80
2023/07/23 12:44:11;;;;;;;7.18;6.22;;;32.50;23.40;;;;;;5039641;28;20254;-79
2023/07/23 12:46:39;;;;;;;7.97;6.32;;;32.00;23.10;;;;;;5042544;28;20215;-79
2023/07/23 12:49:07;;;;;;;9.70;6.35;;;32.00;25.70;;;;;;5040328;28;20632;-81
2023/07/23 12:51:38;;;;;;;8.32;6.53;;;32.20;24.60;;;;;;5039983;28;20212;-81
2023/07/23 12:54:06;;;;;;;7.85;6.45;;;31.90;23.90;;;;;;5060226;28;20211;-81
2023/07/23 12:56:36;;;;;;;11.27;6.82;;;31.90;24.50;;;;;;5059568;28;20215;-77
2023/07/23 12:59:04;;;;;;;8.50;6.20;;;31.90;23.90;;;;;;5059495;28;20216;-78